sensor_id;sensor_type;location;lat;lon;timestamp;temperature;humidity
44817;DHT22;30529;53.570;9.964;2022-10-15T00:00:14;14.80;99.90
44817;DHT22;30529;53.570;9.964;2022-10-15T00:02:41;14.80;99.90
44817;DHT22;30529;53.570;9.964;2022-10-15T00:05:07;14.90;99.90
44817;DHT22;30529;53.570;9.964;2022-10-15T00:07:33;14.80;99.90
44817;DHT22;30529;53.570;9.964;2022-10-15T00:09:59;14.80;99.90
44817;DHT22;30529;53.570;9.964;2022-10-15T00:12:26;14.80;99.90
44817;DHT22;30529;53.570;9.964;2022-10-15T00:14:52;14.80;99.90
44817;DHT22;30529;53.570;9.964;2022-10-15T00:17:18;14.80;99.90
44817;DHT22;30529;53.570;9.964;2022-10-15T00:19:44;14.70;99.90
44817;DHT22;30529;53.570;9.964;2022-10-15T00:22:11;14.70;99.90
44817;DHT22;30529;53.570;9.964;2022-10-15T00:24:37;14.80;99.90
44817;DHT22;30529;53.570;9.964;2022-10-15T00:27:03;14.80;99.90
44817;DHT22;30529;53.570;9.964;2022-10-15T00:29:29;14.80;99.90
44817;DHT22;30529;53.570;9.964;2022-10-15T00:31:55;14.70;99.90
44817;DHT22;30529;53.570;9.964;2022-10-15T00:34:22;14.70;99.90
44817;DHT22;30529;53.570;9.964;2022-10-15T00:36:49;14.70;99.90
44817;DHT22;30529;53.570;9.964;2022-10-15T00:39:19;14.70;99.90
44817;DHT22;30529;53.570;9.964;2022-10-15T00:41:49;14.70;99.90
44817;DHT22;30529;53.570;9.964;2022-10-15T00:47:16;14.60;99.90
44817;DHT22;30529;53.570;9.964;2022-10-15T00:49:57;14.60;99.90
44817;DHT22;30529;53.570;9.964;2022-10-15T00:52:31;14.60;99.90
44817;DHT22;30529;53.570;9.964;2022-10-15T00:55:13;14.60;99.90
44817;DHT22;30529;53.570;9.964;2022-10-15T00:57:40;14.60;99.90
44817;DHT22;30529;53.570;9.964;2022-10-15T01:00:12;14.50;99.90
44817;DHT22;30529;53.570;9.964;2022-10-15T01:02:41;14.50;99.90
44817;DHT22;30529;53.570;9.964;2022-10-15T01:05:08;14.50;99.90
44817;DHT22;30529;53.570;9.964;2022-10-15T01:07:34;14.50;99.90
44817;DHT22;30529;53.570;9.964;2022-10-15T01:10:02;14.50;99.90
44817;DHT22;30529;53.570;9.964;2022-10-15T01:15:48;14.50;99.90
44817;DHT22;30529;53.570;9.964;2022-10-15T01:18:21;14.40;99.90
44817;DHT22;30529;53.570;9.964;2022-10-15T01:21:35;14.40;99.90
44817;DHT22;30529;53.570;9.964;2022-10-15T01:24:09;14.40;99.90
44817;DHT22;30529;53.570;9.964;2022-10-15T01:30:10;14.50;99.90
44817;DHT22;30529;53.570;9.964;2022-10-15T01:33:07;14.50;99.90
44817;DHT22;30529;53.570;9.964;2022-10-15T01:35:51;14.50;99.90
44817;DHT22;30529;53.570;9.964;2022-10-15T01:40:56;14.40;99.90
44817;DHT22;30529;53.570;9.964;2022-10-15T01:43:37;14.40;99.90
44817;DHT22;30529;53.570;9.964;2022-10-15T01:46:12;14.40;99.90
44817;DHT22;30529;53.570;9.964;2022-10-15T01:48:39;14.40;99.90
44817;DHT22;30529;53.570;9.964;2022-10-15T01:51:06;14.40;99.90
44817;DHT22;30529;53.570;9.964;2022-10-15T01:53:35;14.30;99.90
44817;DHT22;30529;53.570;9.964;2022-10-15T01:56:08;14.30;99.90
44817;DHT22;30529;53.570;9.964;2022-10-15T01:58:38;14.30;99.90
44817;DHT22;30529;53.570;9.964;2022-10-15T02:01:05;14.30;99.90
44817;DHT22;30529;53.570;9.964;2022-10-15T02:03:31;14.30;99.90
44817;DHT22;30529;53.570;9.964;2022-10-15T02:06:07;14.30;99.90
44817;DHT22;30529;53.570;9.964;2022-10-15T02:08:44;14.20;99.90
44817;DHT22;30529;53.570;9.964;2022-10-15T02:11:15;14.20;99.90
44817;DHT22;30529;53.570;9.964;2022-10-15T02:16:28;14.20;99.90
44817;DHT22;30529;53.570;9.964;2022-10-15T02:19:11;14.20;99.90
44817;DHT22;30529;53.570;9.964;2022-10-15T02:21:51;14.20;99.90
44817;DHT22;30529;53.570;9.964;2022-10-15T02:24:27;14.20;99.90
44817;DHT22;30529;53.570;9.964;2022-10-15T02:26:56;14.20;99.90
44817;DHT22;30529;53.570;9.964;2022-10-15T02:29:26;14.20;99.90
44817;DHT22;30529;53.570;9.964;2022-10-15T02:31:56;14.20;99.90
44817;DHT22;30529;53.570;9.964;2022-10-15T02:34:26;14.20;99.90
44817;DHT22;30529;53.570;9.964;2022-10-15T02:36:54;14.20;99.90
44817;DHT22;30529;53.570;9.964;2022-10-15T02:39:22;14.20;99.90
44817;DHT22;30529;53.570;9.964;2022-10-15T02:41:50;14.10;99.90
44817;DHT22;30529;53.570;9.964;2022-10-15T02:44:16;14.10;99.90
44817;DHT22;30529;53.570;9.964;2022-10-15T02:46:42;14.10;99.90
44817;DHT22;30529;53.570;9.964;2022-10-15T02:49:08;14.10;99.90
44817;DHT22;30529;53.570;9.964;2022-10-15T02:51:35;14.00;99.90
44817;DHT22;30529;53.570;9.964;2022-10-15T02:54:02;14.00;99.90
44817;DHT22;30529;53.570;9.964;2022-10-15T02:56:29;13.90;99.90
44817;DHT22;30529;53.570;9.964;2022-10-15T02:58:55;13.90;99.90
44817;DHT22;30529;53.570;9.964;2022-10-15T03:01:21;13.90;99.90
44817;DHT22;30529;53.570;9.964;2022-10-15T03:03:47;13.90;99.90
44817;DHT22;30529;53.570;9.964;2022-10-15T03:06:14;13.80;99.90
44817;DHT22;30529;53.570;9.964;2022-10-15T03:08:40;13.70;99.90
44817;DHT22;30529;53.570;9.964;2022-10-15T03:11:07;13.60;99.90
44817;DHT22;30529;53.570;9.964;2022-10-15T03:13:38;13.40;99.90
44817;DHT22;30529;53.570;9.964;2022-10-15T03:16:05;13.30;99.90
44817;DHT22;30529;53.570;9.964;2022-10-15T03:18:32;13.20;99.90
44817;DHT22;30529;53.570;9.964;2022-10-15T03:20:58;13.20;99.90
44817;DHT22;30529;53.570;9.964;2022-10-15T03:23:25;13.20;99.90
44817;DHT22;30529;53.570;9.964;2022-10-15T03:25:52;13.20;99.90
44817;DHT22;30529;53.570;9.964;2022-10-15T03:28:19;13.20;99.90
44817;DHT22;30529;53.570;9.964;2022-10-15T03:30:45;13.20;99.90
44817;DHT22;30529;53.570;9.964;2022-10-15T03:33:12;13.20;99.90
44817;DHT22;30529;53.570;9.964;2022-10-15T03:35:38;13.20;99.90
44817;DHT22;30529;53.570;9.964;2022-10-15T03:38:05;13.20;99.90
44817;DHT22;30529;53.570;9.964;2022-10-15T03:40:33;13.20;99.90
44817;DHT22;30529;53.570;9.964;2022-10-15T03:42:59;13.10;99.90
44817;DHT22;30529;53.570;9.964;2022-10-15T03:45:26;13.10;99.90
44817;DHT22;30529;53.570;9.964;2022-10-15T03:47:52;13.10;99.90
44817;DHT22;30529;53.570;9.964;2022-10-15T03:50:18;13.10;99.90
44817;DHT22;30529;53.570;9.964;2022-10-15T03:52:44;13.10;99.90
44817;DHT22;30529;53.570;9.964;2022-10-15T03:55:11;13.20;99.90
44817;DHT22;30529;53.570;9.964;2022-10-15T03:57:41;13.30;99.90
44817;DHT22;30529;53.570;9.964;2022-10-15T04:00:08;13.30;99.90
44817;DHT22;30529;53.570;9.964;2022-10-15T04:02:38;13.40;99.90
44817;DHT22;30529;53.570;9.964;2022-10-15T04:05:04;13.40;99.90
44817;DHT22;30529;53.570;9.964;2022-10-15T04:07:30;13.50;99.90
44817;DHT22;30529;53.570;9.964;2022-10-15T04:09:57;13.60;99.90
44817;DHT22;30529;53.570;9.964;2022-10-15T04:12:23;13.60;99.90
44817;DHT22;30529;53.570;9.964;2022-10-15T04:14:49;13.60;99.90
44817;DHT22;30529;53.570;9.964;2022-10-15T04:17:15;13.60;99.90
44817;DHT22;30529;53.570;9.964;2022-10-15T04:19:41;13.70;99.90
44817;DHT22;30529;53.570;9.964;2022-10-15T04:22:07;13.70;99.90
44817;DHT22;30529;53.570;9.964;2022-10-15T04:24:33;13.70;99.90
44817;DHT22;30529;53.570;9.964;2022-10-15T04:26:59;13.70;99.90
44817;DHT22;30529;53.570;9.964;2022-10-15T04:29:25;13.70;99.90
44817;DHT22;30529;53.570;9.964;2022-10-15T04:31:51;13.70;99.90
44817;DHT22;30529;53.570;9.964;2022-10-15T04:34:18;13.60;99.90
44817;DHT22;30529;53.570;9.964;2022-10-15T04:36:44;13.60;99.90
44817;DHT22;30529;53.570;9.964;2022-10-15T04:39:12;13.60;99.90
44817;DHT22;30529;53.570;9.964;2022-10-15T04:41:38;13.60;99.90
44817;DHT22;30529;53.570;9.964;2022-10-15T04:44:04;13.60;99.90
44817;DHT22;30529;53.570;9.964;2022-10-15T04:46:31;13.60;99.90
44817;DHT22;30529;53.570;9.964;2022-10-15T04:48:57;13.60;99.90
44817;DHT22;30529;53.570;9.964;2022-10-15T04:51:25;13.60;99.90
44817;DHT22;30529;53.570;9.964;2022-10-15T04:53:51;13.60;99.90
44817;DHT22;30529;53.570;9.964;2022-10-15T04:56:19;13.60;99.90
44817;DHT22;30529;53.570;9.964;2022-10-15T04:58:47;13.60;99.90
44817;DHT22;30529;53.570;9.964;2022-10-15T05:01:19;13.50;99.90
44817;DHT22;30529;53.570;9.964;2022-10-15T05:03:46;13.50;99.90
44817;DHT22;30529;53.570;9.964;2022-10-15T05:06:16;13.50;99.90
44817;DHT22;30529;53.570;9.964;2022-10-15T05:08:43;13.50;99.90
44817;DHT22;30529;53.570;9.964;2022-10-15T05:11:15;13.60;99.90
44817;DHT22;30529;53.570;9.964;2022-10-15T05:13:42;13.50;99.90
44817;DHT22;30529;53.570;9.964;2022-10-15T05:16:14;13.50;99.90
44817;DHT22;30529;53.570;9.964;2022-10-15T05:18:42;13.60;99.90
44817;DHT22;30529;53.570;9.964;2022-10-15T05:21:09;13.50;99.90
44817;DHT22;30529;53.570;9.964;2022-10-15T05:23:36;13.50;99.90
44817;DHT22;30529;53.570;9.964;2022-10-15T05:26:07;13.50;99.90
44817;DHT22;30529;53.570;9.964;2022-10-15T05:28:34;13.50;99.90
44817;DHT22;30529;53.570;9.964;2022-10-15T05:31:08;13.40;99.90
44817;DHT22;30529;53.570;9.964;2022-10-15T05:33:34;13.50;99.90
44817;DHT22;30529;53.570;9.964;2022-10-15T05:36:18;13.40;99.90
44817;DHT22;30529;53.570;9.964;2022-10-15T05:38:56;13.40;99.90
44817;DHT22;30529;53.570;9.964;2022-10-15T05:41:23;13.50;99.90
44817;DHT22;30529;53.570;9.964;2022-10-15T05:43:52;13.50;99.90
44817;DHT22;30529;53.570;9.964;2022-10-15T05:46:19;13.50;99.90
44817;DHT22;30529;53.570;9.964;2022-10-15T05:48:49;13.50;99.90
44817;DHT22;30529;53.570;9.964;2022-10-15T05:51:16;13.50;99.90
44817;DHT22;30529;53.570;9.964;2022-10-15T05:53:42;13.50;99.90
44817;DHT22;30529;53.570;9.964;2022-10-15T05:56:12;13.50;99.90
44817;DHT22;30529;53.570;9.964;2022-10-15T05:58:39;13.50;99.90
44817;DHT22;30529;53.570;9.964;2022-10-15T06:01:07;13.50;99.90
44817;DHT22;30529;53.570;9.964;2022-10-15T06:03:34;13.50;99.90
44817;DHT22;30529;53.570;9.964;2022-10-15T06:06:00;13.50;99.90
44817;DHT22;30529;53.570;9.964;2022-10-15T06:08:28;13.50;99.90
44817;DHT22;30529;53.570;9.964;2022-10-15T06:10:54;13.60;99.90
44817;DHT22;30529;53.570;9.964;2022-10-15T06:13:22;13.60;99.90
44817;DHT22;30529;53.570;9.964;2022-10-15T06:15:48;13.60;99.90
44817;DHT22;30529;53.570;9.964;2022-10-15T06:18:14;13.60;99.90
44817;DHT22;30529;53.570;9.964;2022-10-15T06:20:50;13.60;99.90
44817;DHT22;30529;53.570;9.964;2022-10-15T06:23:16;13.70;99.90
44817;DHT22;30529;53.570;9.964;2022-10-15T06:25:42;13.70;99.90
44817;DHT22;30529;53.570;9.964;2022-10-15T06:28:08;13.70;99.90
44817;DHT22;30529;53.570;9.964;2022-10-15T06:30:34;13.60;99.90
44817;DHT22;30529;53.570;9.964;2022-10-15T06:33:01;13.60;99.90
44817;DHT22;30529;53.570;9.964;2022-10-15T06:35:28;13.70;99.90
44817;DHT22;30529;53.570;9.964;2022-10-15T06:38:04;13.70;99.90
44817;DHT22;30529;53.570;9.964;2022-10-15T06:40:31;13.70;99.90
44817;DHT22;30529;53.570;9.964;2022-10-15T06:43:08;13.80;99.90
44817;DHT22;30529;53.570;9.964;2022-10-15T06:45:38;13.70;99.90
44817;DHT22;30529;53.570;9.964;2022-10-15T06:48:05;13.70;99.90
44817;DHT22;30529;53.570;9.964;2022-10-15T06:50:32;13.70;99.90
44817;DHT22;30529;53.570;9.964;2022-10-15T06:53:03;13.70;99.90
44817;DHT22;30529;53.570;9.964;2022-10-15T06:55:29;13.70;99.90
44817;DHT22;30529;53.570;9.964;2022-10-15T06:57:55;13.70;99.90
44817;DHT22;30529;53.570;9.964;2022-10-15T07:00:25;13.80;99.90
44817;DHT22;30529;53.570;9.964;2022-10-15T07:02:51;13.80;99.90
44817;DHT22;30529;53.570;9.964;2022-10-15T07:05:18;13.80;99.90
44817;DHT22;30529;53.570;9.964;2022-10-15T07:07:55;13.90;99.90
44817;DHT22;30529;53.570;9.964;2022-10-15T07:10:23;13.80;99.90
44817;DHT22;30529;53.570;9.964;2022-10-15T07:12:50;13.80;99.90
44817;DHT22;30529;53.570;9.964;2022-10-15T07:15:16;13.80;99.90
44817;DHT22;30529;53.570;9.964;2022-10-15T07:17:49;13.90;99.90
44817;DHT22;30529;53.570;9.964;2022-10-15T07:20:16;13.90;99.90
44817;DHT22;30529;53.570;9.964;2022-10-15T07:22:42;14.00;99.90
44817;DHT22;30529;53.570;9.964;2022-10-15T07:25:09;14.10;99.90
44817;DHT22;30529;53.570;9.964;2022-10-15T07:27:36;14.20;99.90
44817;DHT22;30529;53.570;9.964;2022-10-15T07:30:03;14.20;99.90
44817;DHT22;30529;53.570;9.964;2022-10-15T07:32:30;14.20;99.90
44817;DHT22;30529;53.570;9.964;2022-10-15T07:34:56;14.30;99.90
44817;DHT22;30529;53.570;9.964;2022-10-15T07:37:22;14.30;99.90
44817;DHT22;30529;53.570;9.964;2022-10-15T07:39:48;14.40;99.90
44817;DHT22;30529;53.570;9.964;2022-10-15T07:42:14;14.40;99.90
44817;DHT22;30529;53.570;9.964;2022-10-15T07:44:40;14.40;99.90
44817;DHT22;30529;53.570;9.964;2022-10-15T07:47:06;14.40;99.90
44817;DHT22;30529;53.570;9.964;2022-10-15T07:49:33;14.40;99.90
44817;DHT22;30529;53.570;9.964;2022-10-15T07:51:59;14.40;99.90
44817;DHT22;30529;53.570;9.964;2022-10-15T07:54:25;14.50;99.90
44817;DHT22;30529;53.570;9.964;2022-10-15T07:56:51;14.50;99.90
44817;DHT22;30529;53.570;9.964;2022-10-15T07:59:17;14.60;99.90
44817;DHT22;30529;53.570;9.964;2022-10-15T08:01:43;14.60;99.90
44817;DHT22;30529;53.570;9.964;2022-10-15T08:04:09;14.60;99.90
44817;DHT22;30529;53.570;9.964;2022-10-15T08:06:35;14.80;99.90
44817;DHT22;30529;53.570;9.964;2022-10-15T08:09:03;14.90;99.90
44817;DHT22;30529;53.570;9.964;2022-10-15T08:11:30;14.70;99.90
44817;DHT22;30529;53.570;9.964;2022-10-15T08:13:56;14.80;99.90
44817;DHT22;30529;53.570;9.964;2022-10-15T08:16:22;14.90;99.90
44817;DHT22;30529;53.570;9.964;2022-10-15T08:18:49;14.90;99.90
44817;DHT22;30529;53.570;9.964;2022-10-15T08:21:15;14.80;99.90
44817;DHT22;30529;53.570;9.964;2022-10-15T08:23:41;14.60;99.90
44817;DHT22;30529;53.570;9.964;2022-10-15T08:26:07;14.50;99.90
44817;DHT22;30529;53.570;9.964;2022-10-15T08:28:34;14.40;99.90
44817;DHT22;30529;53.570;9.964;2022-10-15T08:31:02;14.40;99.90
44817;DHT22;30529;53.570;9.964;2022-10-15T08:33:28;14.40;99.90
44817;DHT22;30529;53.570;9.964;2022-10-15T08:35:55;14.40;99.90
44817;DHT22;30529;53.570;9.964;2022-10-15T08:38:21;14.40;99.90
44817;DHT22;30529;53.570;9.964;2022-10-15T08:40:58;14.40;99.90
44817;DHT22;30529;53.570;9.964;2022-10-15T08:45:59;14.30;99.90
44817;DHT22;30529;53.570;9.964;2022-10-15T08:48:30;14.20;99.90
44817;DHT22;30529;53.570;9.964;2022-10-15T08:51:19;14.20;99.90
44817;DHT22;30529;53.570;9.964;2022-10-15T08:53:55;14.20;99.90
44817;DHT22;30529;53.570;9.964;2022-10-15T08:56:39;14.20;99.90
44817;DHT22;30529;53.570;9.964;2022-10-15T08:59:31;14.30;99.90
44817;DHT22;30529;53.570;9.964;2022-10-15T09:02:18;14.30;99.90
44817;DHT22;30529;53.570;9.964;2022-10-15T09:04:52;14.30;99.90
44817;DHT22;30529;53.570;9.964;2022-10-15T09:07:34;14.30;99.90
44817;DHT22;30529;53.570;9.964;2022-10-15T09:10:20;14.30;99.90
44817;DHT22;30529;53.570;9.964;2022-10-15T09:12:56;14.30;99.90
44817;DHT22;30529;53.570;9.964;2022-10-15T09:15:25;14.30;99.90
44817;DHT22;30529;53.570;9.964;2022-10-15T09:17:53;14.40;99.90
44817;DHT22;30529;53.570;9.964;2022-10-15T09:20:29;14.50;99.90
44817;DHT22;30529;53.570;9.964;2022-10-15T09:22:56;14.60;99.90
44817;DHT22;30529;53.570;9.964;2022-10-15T09:25:23;14.90;99.90
44817;DHT22;30529;53.570;9.964;2022-10-15T09:27:51;15.30;99.90
44817;DHT22;30529;53.570;9.964;2022-10-15T09:31:04;15.70;99.90
44817;DHT22;30529;53.570;9.964;2022-10-15T09:33:58;15.80;99.90
44817;DHT22;30529;53.570;9.964;2022-10-15T09:36:38;15.70;99.90
44817;DHT22;30529;53.570;9.964;2022-10-15T09:42:29;15.70;99.90
44817;DHT22;30529;53.570;9.964;2022-10-15T09:44:59;15.60;99.90
44817;DHT22;30529;53.570;9.964;2022-10-15T09:47:29;15.60;99.90
44817;DHT22;30529;53.570;9.964;2022-10-15T09:49:56;15.60;99.90
44817;DHT22;30529;53.570;9.964;2022-10-15T09:52:45;15.60;99.90
44817;DHT22;30529;53.570;9.964;2022-10-15T09:57:54;15.40;99.90
44817;DHT22;30529;53.570;9.964;2022-10-15T10:00:21;15.30;99.90
44817;DHT22;30529;53.570;9.964;2022-10-15T10:03:05;15.30;99.90
44817;DHT22;30529;53.570;9.964;2022-10-15T10:05:35;15.30;99.90
44817;DHT22;30529;53.570;9.964;2022-10-15T10:08:09;15.30;99.90
44817;DHT22;30529;53.570;9.964;2022-10-15T10:10:36;15.30;99.90
44817;DHT22;30529;53.570;9.964;2022-10-15T10:13:08;15.30;99.90
44817;DHT22;30529;53.570;9.964;2022-10-15T10:15:45;15.30;99.90
44817;DHT22;30529;53.570;9.964;2022-10-15T10:18:18;15.30;99.90
44817;DHT22;30529;53.570;9.964;2022-10-15T10:21:01;15.30;99.90
44817;DHT22;30529;53.570;9.964;2022-10-15T10:23:45;15.20;99.90
44817;DHT22;30529;53.570;9.964;2022-10-15T10:26:12;15.30;99.90
44817;DHT22;30529;53.570;9.964;2022-10-15T10:31:10;15.40;99.90
44817;DHT22;30529;53.570;9.964;2022-10-15T10:33:45;15.50;99.90
44817;DHT22;30529;53.570;9.964;2022-10-15T10:36:23;15.40;99.90
44817;DHT22;30529;53.570;9.964;2022-10-15T10:44:31;15.70;99.90
44817;DHT22;30529;53.570;9.964;2022-10-15T10:47:14;15.80;99.90
44817;DHT22;30529;53.570;9.964;2022-10-15T10:49:52;16.00;99.90
44817;DHT22;30529;53.570;9.964;2022-10-15T10:52:21;16.20;99.90
44817;DHT22;30529;53.570;9.964;2022-10-15T10:55:03;16.40;99.90
44817;DHT22;30529;53.570;9.964;2022-10-15T10:57:51;16.50;99.90
44817;DHT22;30529;53.570;9.964;2022-10-15T11:00:36;16.70;99.90
44817;DHT22;30529;53.570;9.964;2022-10-15T11:03:04;16.90;99.90
44817;DHT22;30529;53.570;9.964;2022-10-15T11:05:33;17.00;99.90
44817;DHT22;30529;53.570;9.964;2022-10-15T11:10:37;17.00;99.90
44817;DHT22;30529;53.570;9.964;2022-10-15T11:13:25;17.00;99.90
44817;DHT22;30529;53.570;9.964;2022-10-15T11:16:23;17.10;99.90
44817;DHT22;30529;53.570;9.964;2022-10-15T11:21:58;17.20;99.90
44817;DHT22;30529;53.570;9.964;2022-10-15T11:24:34;17.30;99.90
44817;DHT22;30529;53.570;9.964;2022-10-15T11:27:19;17.40;99.90
44817;DHT22;30529;53.570;9.964;2022-10-15T11:36:22;17.50;99.90
44817;DHT22;30529;53.570;9.964;2022-10-15T11:39:28;17.60;99.90
44817;DHT22;30529;53.570;9.964;2022-10-15T11:42:27;17.30;99.90
44817;DHT22;30529;53.570;9.964;2022-10-15T11:47:52;16.90;99.90
44817;DHT22;30529;53.570;9.964;2022-10-15T11:53:08;16.50;99.90
44817;DHT22;30529;53.570;9.964;2022-10-15T11:55:46;16.50;99.90
44817;DHT22;30529;53.570;9.964;2022-10-15T12:01:05;16.40;99.90
44817;DHT22;30529;53.570;9.964;2022-10-15T12:03:40;16.60;99.90
44817;DHT22;30529;53.570;9.964;2022-10-15T12:06:13;16.70;99.90
44817;DHT22;30529;53.570;9.964;2022-10-15T12:08:41;16.70;99.90
44817;DHT22;30529;53.570;9.964;2022-10-15T12:14:06;16.50;99.90
44817;DHT22;30529;53.570;9.964;2022-10-15T12:16:42;16.60;99.90
44817;DHT22;30529;53.570;9.964;2022-10-15T12:19:37;16.70;99.90
44817;DHT22;30529;53.570;9.964;2022-10-15T12:22:08;16.90;99.90
44817;DHT22;30529;53.570;9.964;2022-10-15T12:32:39;16.60;99.90
44817;DHT22;30529;53.570;9.964;2022-10-15T12:35:34;16.50;99.90
44817;DHT22;30529;53.570;9.964;2022-10-15T12:38:20;16.50;99.90
44817;DHT22;30529;53.570;9.964;2022-10-15T12:43:27;16.50;99.90
44817;DHT22;30529;53.570;9.964;2022-10-15T12:45:57;16.50;99.90
44817;DHT22;30529;53.570;9.964;2022-10-15T12:48:33;16.50;99.90
44817;DHT22;30529;53.570;9.964;2022-10-15T12:53:51;16.80;99.90
44817;DHT22;30529;53.570;9.964;2022-10-15T12:56:23;16.80;99.90
44817;DHT22;30529;53.570;9.964;2022-10-15T12:58:54;16.80;99.90
44817;DHT22;30529;53.570;9.964;2022-10-15T13:11:36;17.50;99.90
44817;DHT22;30529;53.570;9.964;2022-10-15T13:16:51;17.60;99.90
44817;DHT22;30529;53.570;9.964;2022-10-15T13:19:26;17.70;99.90
44817;DHT22;30529;53.570;9.964;2022-10-15T13:21:58;17.70;99.90
44817;DHT22;30529;53.570;9.964;2022-10-15T13:24:26;17.70;99.90
44817;DHT22;30529;53.570;9.964;2022-10-15T13:26:54;17.70;99.90
44817;DHT22;30529;53.570;9.964;2022-10-15T13:29:23;17.70;99.90
44817;DHT22;30529;53.570;9.964;2022-10-15T13:31:52;17.80;99.90
44817;DHT22;30529;53.570;9.964;2022-10-15T13:34:33;17.70;99.90
44817;DHT22;30529;53.570;9.964;2022-10-15T13:37:03;17.60;99.90
44817;DHT22;30529;53.570;9.964;2022-10-15T13:39:35;17.60;99.90
44817;DHT22;30529;53.570;9.964;2022-10-15T13:44:41;17.60;99.90
44817;DHT22;30529;53.570;9.964;2022-10-15T13:47:35;17.60;99.90
44817;DHT22;30529;53.570;9.964;2022-10-15T13:50:18;17.70;99.90
44817;DHT22;30529;53.570;9.964;2022-10-15T13:52:49;17.80;99.90
44817;DHT22;30529;53.570;9.964;2022-10-15T13:55:19;17.90;99.90
44817;DHT22;30529;53.570;9.964;2022-10-15T13:57:46;17.80;99.90
44817;DHT22;30529;53.570;9.964;2022-10-15T14:00:28;17.80;99.90
44817;DHT22;30529;53.570;9.964;2022-10-15T14:03:31;17.60;99.90
44817;DHT22;30529;53.570;9.964;2022-10-15T14:06:16;17.40;99.90
44817;DHT22;30529;53.570;9.964;2022-10-15T14:08:44;17.50;99.90
44817;DHT22;30529;53.570;9.964;2022-10-15T14:11:12;17.60;99.90
44817;DHT22;30529;53.570;9.964;2022-10-15T14:13:53;17.50;99.90
44817;DHT22;30529;53.570;9.964;2022-10-15T14:16:26;17.40;99.90
44817;DHT22;30529;53.570;9.964;2022-10-15T14:18:56;17.20;99.90
44817;DHT22;30529;53.570;9.964;2022-10-15T14:21:24;17.20;99.90
44817;DHT22;30529;53.570;9.964;2022-10-15T14:24:18;17.10;99.90
44817;DHT22;30529;53.570;9.964;2022-10-15T14:26:45;17.10;99.90
44817;DHT22;30529;53.570;9.964;2022-10-15T14:29:23;17.00;99.90
44817;DHT22;30529;53.570;9.964;2022-10-15T14:31:50;16.90;99.90
44817;DHT22;30529;53.570;9.964;2022-10-15T14:34:30;16.80;99.90
44817;DHT22;30529;53.570;9.964;2022-10-15T14:37:01;16.90;99.90
44817;DHT22;30529;53.570;9.964;2022-10-15T14:42:06;17.10;99.90
44817;DHT22;30529;53.570;9.964;2022-10-15T14:44:48;17.20;99.90
44817;DHT22;30529;53.570;9.964;2022-10-15T14:47:23;17.20;99.90
44817;DHT22;30529;53.570;9.964;2022-10-15T14:49:54;17.30;99.90
44817;DHT22;30529;53.570;9.964;2022-10-15T14:52:21;17.30;99.90
44817;DHT22;30529;53.570;9.964;2022-10-15T14:55:12;17.20;99.90
44817;DHT22;30529;53.570;9.964;2022-10-15T14:57:41;17.10;99.90
44817;DHT22;30529;53.570;9.964;2022-10-15T15:00:39;17.10;99.90
44817;DHT22;30529;53.570;9.964;2022-10-15T15:03:10;17.00;99.90
44817;DHT22;30529;53.570;9.964;2022-10-15T15:05:45;17.00;99.90
44817;DHT22;30529;53.570;9.964;2022-10-15T15:08:11;17.00;99.90
44817;DHT22;30529;53.570;9.964;2022-10-15T15:10:37;17.00;99.90
44817;DHT22;30529;53.570;9.964;2022-10-15T15:13:04;17.00;99.90
44817;DHT22;30529;53.570;9.964;2022-10-15T15:15:30;17.00;99.90
44817;DHT22;30529;53.570;9.964;2022-10-15T15:17:56;17.10;99.90
44817;DHT22;30529;53.570;9.964;2022-10-15T15:20:23;17.20;99.90
44817;DHT22;30529;53.570;9.964;2022-10-15T15:22:53;17.20;99.90
44817;DHT22;30529;53.570;9.964;2022-10-15T15:25:28;17.10;99.90
44817;DHT22;30529;53.570;9.964;2022-10-15T15:27:55;17.10;99.90
44817;DHT22;30529;53.570;9.964;2022-10-15T15:30:24;17.10;99.90
44817;DHT22;30529;53.570;9.964;2022-10-15T15:32:51;17.10;99.90
44817;DHT22;30529;53.570;9.964;2022-10-15T15:38:23;17.00;99.90
44817;DHT22;30529;53.570;9.964;2022-10-15T15:41:15;17.00;99.90
44817;DHT22;30529;53.570;9.964;2022-10-15T15:43:41;16.90;99.90
44817;DHT22;30529;53.570;9.964;2022-10-15T15:46:08;16.90;99.90
44817;DHT22;30529;53.570;9.964;2022-10-15T15:48:35;16.90;99.90
44817;DHT22;30529;53.570;9.964;2022-10-15T15:51:04;16.80;99.90
44817;DHT22;30529;53.570;9.964;2022-10-15T15:53:31;16.70;99.90
44817;DHT22;30529;53.570;9.964;2022-10-15T15:55:57;16.60;99.90
44817;DHT22;30529;53.570;9.964;2022-10-15T15:58:23;16.60;99.90
44817;DHT22;30529;53.570;9.964;2022-10-15T16:00:50;16.50;99.90
44817;DHT22;30529;53.570;9.964;2022-10-15T16:03:16;16.40;99.90
44817;DHT22;30529;53.570;9.964;2022-10-15T16:05:42;16.30;99.90
44817;DHT22;30529;53.570;9.964;2022-10-15T16:08:09;16.30;99.90
44817;DHT22;30529;53.570;9.964;2022-10-15T16:10:35;16.30;99.90
44817;DHT22;30529;53.570;9.964;2022-10-15T16:13:02;16.30;99.90
44817;DHT22;30529;53.570;9.964;2022-10-15T16:15:28;16.30;99.90
44817;DHT22;30529;53.570;9.964;2022-10-15T16:17:54;16.20;99.90
44817;DHT22;30529;53.570;9.964;2022-10-15T16:20:21;16.20;99.90
44817;DHT22;30529;53.570;9.964;2022-10-15T16:22:51;16.20;99.90
44817;DHT22;30529;53.570;9.964;2022-10-15T16:25:18;16.20;99.90
44817;DHT22;30529;53.570;9.964;2022-10-15T16:27:45;16.20;99.90
44817;DHT22;30529;53.570;9.964;2022-10-15T16:30:14;16.10;99.90
44817;DHT22;30529;53.570;9.964;2022-10-15T16:32:41;16.20;99.90
44817;DHT22;30529;53.570;9.964;2022-10-15T16:35:07;16.10;99.90
44817;DHT22;30529;53.570;9.964;2022-10-15T16:37:34;16.10;99.90
44817;DHT22;30529;53.570;9.964;2022-10-15T16:40:09;16.10;99.90
44817;DHT22;30529;53.570;9.964;2022-10-15T16:42:35;16.10;99.90
44817;DHT22;30529;53.570;9.964;2022-10-15T16:45:02;16.20;99.90
44817;DHT22;30529;53.570;9.964;2022-10-15T16:47:29;16.10;99.90
44817;DHT22;30529;53.570;9.964;2022-10-15T16:49:55;16.10;99.90
44817;DHT22;30529;53.570;9.964;2022-10-15T16:52:21;16.10;99.90
44817;DHT22;30529;53.570;9.964;2022-10-15T16:54:47;16.10;99.90
44817;DHT22;30529;53.570;9.964;2022-10-15T16:57:13;16.10;99.90
44817;DHT22;30529;53.570;9.964;2022-10-15T16:59:39;16.10;99.90
44817;DHT22;30529;53.570;9.964;2022-10-15T17:02:05;16.10;99.90
44817;DHT22;30529;53.570;9.964;2022-10-15T17:04:32;16.10;99.90
44817;DHT22;30529;53.570;9.964;2022-10-15T17:06:58;16.10;99.90
44817;DHT22;30529;53.570;9.964;2022-10-15T17:09:24;16.00;99.90
44817;DHT22;30529;53.570;9.964;2022-10-15T17:11:50;16.10;99.90
44817;DHT22;30529;53.570;9.964;2022-10-15T17:14:17;16.10;99.90
44817;DHT22;30529;53.570;9.964;2022-10-15T17:16:48;16.00;99.90
44817;DHT22;30529;53.570;9.964;2022-10-15T17:19:17;16.00;99.90
44817;DHT22;30529;53.570;9.964;2022-10-15T17:21:44;16.00;99.90